sensor_id;sensor_type;location;lat;lon;timestamp;temperature;humidity
51559;DHT22;61650;48.882;2.092;2023-05-19T00:01:27;9.30;82.50
51559;DHT22;61650;48.882;2.092;2023-05-19T00:03:56;9.20;82.30
51559;DHT22;61650;48.882;2.092;2023-05-19T00:06:27;9.10;83.70
51559;DHT22;61650;48.882;2.092;2023-05-19T00:11:23;8.90;85.00
51559;DHT22;61650;48.882;2.092;2023-05-19T00:13:54;8.90;85.60
51559;DHT22;61650;48.882;2.092;2023-05-19T00:16:22;9.00;85.30
51559;DHT22;61650;48.882;2.092;2023-05-19T00:18:48;8.90;85.50
51559;DHT22;61650;48.882;2.092;2023-05-19T00:21:13;8.90;86.50
51559;DHT22;61650;48.882;2.092;2023-05-19T00:23:39;9.00;86.20
51559;DHT22;61650;48.882;2.092;2023-05-19T00:26:05;8.90;87.30
51559;DHT22;61650;48.882;2.092;2023-05-19T00:28:30;9.00;87.30
51559;DHT22;61650;48.882;2.092;2023-05-19T00:30:56;8.90;87.30
51559;DHT22;61650;48.882;2.092;2023-05-19T00:33:22;8.80;88.50
51559;DHT22;61650;48.882;2.092;2023-05-19T00:35:47;8.70;89.10
51559;DHT22;61650;48.882;2.092;2023-05-19T00:38:13;8.60;89.20
51559;DHT22;61650;48.882;2.092;2023-05-19T00:40:38;8.60;89.70
51559;DHT22;61650;48.882;2.092;2023-05-19T00:43:04;8.60;89.90
51559;DHT22;61650;48.882;2.092;2023-05-19T00:45:30;8.60;90.20
51559;DHT22;61650;48.882;2.092;2023-05-19T00:47:56;8.70;90.00
51559;DHT22;61650;48.882;2.092;2023-05-19T00:50:22;8.60;90.20
51559;DHT22;61650;48.882;2.092;2023-05-19T00:52:49;8.60;90.70
51559;DHT22;61650;48.882;2.092;2023-05-19T00:55:15;8.60;90.20
51559;DHT22;61650;48.882;2.092;2023-05-19T00:57:42;8.60;91.40
51559;DHT22;61650;48.882;2.092;2023-05-19T01:00:08;8.60;90.80
51559;DHT22;61650;48.882;2.092;2023-05-19T01:02:35;8.60;91.70
51559;DHT22;61650;48.882;2.092;2023-05-19T01:05:05;8.70;91.10
51559;DHT22;61650;48.882;2.092;2023-05-19T01:07:31;8.70;90.70
51559;DHT22;61650;48.882;2.092;2023-05-19T01:09:57;8.60;91.20
51559;DHT22;61650;48.882;2.092;2023-05-19T01:12:23;8.50;91.70
51559;DHT22;61650;48.882;2.092;2023-05-19T01:14:49;8.50;92.80
51559;DHT22;61650;48.882;2.092;2023-05-19T01:20:07;8.60;92.00
51559;DHT22;61650;48.882;2.092;2023-05-19T01:31:16;8.40;92.50
51559;DHT22;61650;48.882;2.092;2023-05-19T01:33:44;8.40;92.90
51559;DHT22;61650;48.882;2.092;2023-05-19T01:36:11;8.30;92.90
51559;DHT22;61650;48.882;2.092;2023-05-19T01:38:39;8.30;93.10
51559;DHT22;61650;48.882;2.092;2023-05-19T01:41:05;8.20;93.20
51559;DHT22;61650;48.882;2.092;2023-05-19T01:43:32;8.20;94.00
51559;DHT22;61650;48.882;2.092;2023-05-19T01:45:59;8.00;94.40
51559;DHT22;61650;48.882;2.092;2023-05-19T01:48:26;7.90;95.10
51559;DHT22;61650;48.882;2.092;2023-05-19T01:50:53;7.90;94.50
51559;DHT22;61650;48.882;2.092;2023-05-19T01:53:22;7.90;94.90
51559;DHT22;61650;48.882;2.092;2023-05-19T01:55:50;7.80;95.00
51559;DHT22;61650;48.882;2.092;2023-05-19T02:04:16;7.80;96.00
51559;DHT22;61650;48.882;2.092;2023-05-19T02:07:25;7.70;96.00
51559;DHT22;61650;48.882;2.092;2023-05-19T02:10:04;7.60;96.10
51559;DHT22;61650;48.882;2.092;2023-05-19T02:12:34;7.60;96.70
51559;DHT22;61650;48.882;2.092;2023-05-19T02:15:24;7.50;97.80
51559;DHT22;61650;48.882;2.092;2023-05-19T02:17:52;7.50;98.00
51559;DHT22;61650;48.882;2.092;2023-05-19T02:20:19;7.60;97.80
51559;DHT22;61650;48.882;2.092;2023-05-19T02:22:46;7.70;97.40
51559;DHT22;61650;48.882;2.092;2023-05-19T02:25:13;7.70;97.70
51559;DHT22;61650;48.882;2.092;2023-05-19T02:27:40;7.80;97.10
51559;DHT22;61650;48.882;2.092;2023-05-19T02:30:07;7.80;96.20
51559;DHT22;61650;48.882;2.092;2023-05-19T02:32:33;7.70;96.60
51559;DHT22;61650;48.882;2.092;2023-05-19T02:34:58;7.50;97.00
51559;DHT22;61650;48.882;2.092;2023-05-19T02:37:24;7.50;97.60
51559;DHT22;61650;48.882;2.092;2023-05-19T02:39:53;7.60;97.70
51559;DHT22;61650;48.882;2.092;2023-05-19T02:42:19;7.60;98.30
51559;DHT22;61650;48.882;2.092;2023-05-19T02:44:44;7.60;97.40
51559;DHT22;61650;48.882;2.092;2023-05-19T02:47:11;7.60;97.70
51559;DHT22;61650;48.882;2.092;2023-05-19T02:49:36;7.60;97.80
51559;DHT22;61650;48.882;2.092;2023-05-19T02:52:05;7.60;98.00
51559;DHT22;61650;48.882;2.092;2023-05-19T02:54:32;7.70;97.70
51559;DHT22;61650;48.882;2.092;2023-05-19T02:56:58;7.70;97.30
51559;DHT22;61650;48.882;2.092;2023-05-19T02:59:24;7.70;97.00
51559;DHT22;61650;48.882;2.092;2023-05-19T03:01:58;7.60;96.90
51559;DHT22;61650;48.882;2.092;2023-05-19T03:04:24;7.60;97.10
51559;DHT22;61650;48.882;2.092;2023-05-19T03:06:49;7.60;97.10
51559;DHT22;61650;48.882;2.092;2023-05-19T03:09:15;7.60;96.80
51559;DHT22;61650;48.882;2.092;2023-05-19T03:11:41;7.60;97.10
51559;DHT22;61650;48.882;2.092;2023-05-19T03:14:06;7.60;96.90
51559;DHT22;61650;48.882;2.092;2023-05-19T03:16:34;7.50;97.20
51559;DHT22;61650;48.882;2.092;2023-05-19T03:18:59;7.60;97.20
51559;DHT22;61650;48.882;2.092;2023-05-19T03:21:25;7.70;97.00
51559;DHT22;61650;48.882;2.092;2023-05-19T03:23:51;7.60;97.00
51559;DHT22;61650;48.882;2.092;2023-05-19T03:26:16;7.70;97.10
51559;DHT22;61650;48.882;2.092;2023-05-19T03:28:42;7.70;97.10
51559;DHT22;61650;48.882;2.092;2023-05-19T03:31:07;7.70;96.80
51559;DHT22;61650;48.882;2.092;2023-05-19T03:33:33;7.70;96.70
51559;DHT22;61650;48.882;2.092;2023-05-19T03:35:59;7.70;96.50
51559;DHT22;61650;48.882;2.092;2023-05-19T03:38:24;7.60;96.60
51559;DHT22;61650;48.882;2.092;2023-05-19T03:40:50;7.60;96.90
51559;DHT22;61650;48.882;2.092;2023-05-19T03:43:15;7.60;97.00
51559;DHT22;61650;48.882;2.092;2023-05-19T03:45:41;7.60;97.80
51559;DHT22;61650;48.882;2.092;2023-05-19T03:48:07;7.50;97.20
51559;DHT22;61650;48.882;2.092;2023-05-19T03:50:32;7.50;97.60
51559;DHT22;61650;48.882;2.092;2023-05-19T03:52:59;7.50;97.60
51559;DHT22;61650;48.882;2.092;2023-05-19T03:55:24;7.50;97.20
51559;DHT22;61650;48.882;2.092;2023-05-19T03:57:51;7.50;97.80
51559;DHT22;61650;48.882;2.092;2023-05-19T04:00:19;7.50;97.20
51559;DHT22;61650;48.882;2.092;2023-05-19T04:02:45;7.40;97.20
51559;DHT22;61650;48.882;2.092;2023-05-19T04:05:10;7.30;97.50
51559;DHT22;61650;48.882;2.092;2023-05-19T04:07:36;7.20;98.30
51559;DHT22;61650;48.882;2.092;2023-05-19T04:10:04;7.20;98.90
51559;DHT22;61650;48.882;2.092;2023-05-19T04:12:29;7.20;98.60
51559;DHT22;61650;48.882;2.092;2023-05-19T04:14:55;7.20;98.60
51559;DHT22;61650;48.882;2.092;2023-05-19T04:17:20;7.10;98.80
51559;DHT22;61650;48.882;2.092;2023-05-19T04:19:53;7.10;99.30
51559;DHT22;61650;48.882;2.092;2023-05-19T04:22:19;7.20;99.80
51559;DHT22;61650;48.882;2.092;2023-05-19T04:24:45;7.30;99.60
51559;DHT22;61650;48.882;2.092;2023-05-19T04:27:11;7.30;98.90
51559;DHT22;61650;48.882;2.092;2023-05-19T04:29:38;7.30;98.80
51559;DHT22;61650;48.882;2.092;2023-05-19T04:32:05;7.30;98.90
51559;DHT22;61650;48.882;2.092;2023-05-19T04:34:35;7.20;98.90
51559;DHT22;61650;48.882;2.092;2023-05-19T04:37:01;7.30;99.20
51559;DHT22;61650;48.882;2.092;2023-05-19T04:39:26;7.30;99.20
51559;DHT22;61650;48.882;2.092;2023-05-19T04:41:52;7.30;99.00
51559;DHT22;61650;48.882;2.092;2023-05-19T04:44:18;7.30;98.80
51559;DHT22;61650;48.882;2.092;2023-05-19T04:46:44;7.20;99.30
51559;DHT22;61650;48.882;2.092;2023-05-19T04:49:10;7.30;99.30
51559;DHT22;61650;48.882;2.092;2023-05-19T04:51:39;7.40;99.90
51559;DHT22;61650;48.882;2.092;2023-05-19T04:54:06;7.50;99.40
51559;DHT22;61650;48.882;2.092;2023-05-19T04:56:32;7.60;99.20
51559;DHT22;61650;48.882;2.092;2023-05-19T04:58:57;7.60;98.90
51559;DHT22;61650;48.882;2.092;2023-05-19T05:01:23;7.70;98.40
51559;DHT22;61650;48.882;2.092;2023-05-19T05:03:50;7.80;98.30
51559;DHT22;61650;48.882;2.092;2023-05-19T05:06:19;7.80;98.70
51559;DHT22;61650;48.882;2.092;2023-05-19T05:08:45;7.80;97.90
51559;DHT22;61650;48.882;2.092;2023-05-19T05:11:11;7.80;97.80
51559;DHT22;61650;48.882;2.092;2023-05-19T05:13:36;7.90;97.60
51559;DHT22;61650;48.882;2.092;2023-05-19T05:16:02;8.00;97.10
51559;DHT22;61650;48.882;2.092;2023-05-19T05:18:32;8.20;96.20
51559;DHT22;61650;48.882;2.092;2023-05-19T05:20:58;8.30;95.00
51559;DHT22;61650;48.882;2.092;2023-05-19T05:23:23;8.40;95.00
51559;DHT22;61650;48.882;2.092;2023-05-19T05:25:50;8.50;94.30
51559;DHT22;61650;48.882;2.092;2023-05-19T05:28:15;8.60;95.90
51559;DHT22;61650;48.882;2.092;2023-05-19T05:30:41;8.60;95.00
51559;DHT22;61650;48.882;2.092;2023-05-19T05:33:08;8.70;93.00
51559;DHT22;61650;48.882;2.092;2023-05-19T05:35:34;8.80;95.30
51559;DHT22;61650;48.882;2.092;2023-05-19T05:37:59;8.80;98.20
51559;DHT22;61650;48.882;2.092;2023-05-19T05:40:26;8.70;92.90
51559;DHT22;61650;48.882;2.092;2023-05-19T05:42:51;8.70;91.80
51559;DHT22;61650;48.882;2.092;2023-05-19T05:45:22;8.80;91.40
51559;DHT22;61650;48.882;2.092;2023-05-19T05:47:48;8.70;89.30
51559;DHT22;61650;48.882;2.092;2023-05-19T05:50:14;8.70;90.90
51559;DHT22;61650;48.882;2.092;2023-05-19T05:52:40;8.80;91.40
51559;DHT22;61650;48.882;2.092;2023-05-19T05:55:09;8.90;92.10
51559;DHT22;61650;48.882;2.092;2023-05-19T05:57:35;8.90;90.30
51559;DHT22;61650;48.882;2.092;2023-05-19T06:00:01;9.00;92.60
51559;DHT22;61650;48.882;2.092;2023-05-19T06:02:27;9.10;90.60
51559;DHT22;61650;48.882;2.092;2023-05-19T06:04:54;9.30;90.70
51559;DHT22;61650;48.882;2.092;2023-05-19T06:07:20;9.40;93.20
51559;DHT22;61650;48.882;2.092;2023-05-19T06:09:45;9.40;92.40
51559;DHT22;61650;48.882;2.092;2023-05-19T06:12:11;9.50;90.20
51559;DHT22;61650;48.882;2.092;2023-05-19T06:14:36;9.60;88.80
51559;DHT22;61650;48.882;2.092;2023-05-19T06:17:02;9.70;90.40
51559;DHT22;61650;48.882;2.092;2023-05-19T06:19:29;9.70;89.50
51559;DHT22;61650;48.882;2.092;2023-05-19T06:21:54;9.70;87.70
51559;DHT22;61650;48.882;2.092;2023-05-19T06:24:20;9.70;86.80
51559;DHT22;61650;48.882;2.092;2023-05-19T06:26:45;9.80;89.50
51559;DHT22;61650;48.882;2.092;2023-05-19T06:29:11;9.90;86.90
51559;DHT22;61650;48.882;2.092;2023-05-19T06:31:37;10.10;85.30
51559;DHT22;61650;48.882;2.092;2023-05-19T06:34:02;10.10;88.80
51559;DHT22;61650;48.882;2.092;2023-05-19T06:36:28;10.10;90.50
51559;DHT22;61650;48.882;2.092;2023-05-19T06:38:53;10.20;90.00
51559;DHT22;61650;48.882;2.092;2023-05-19T06:41:19;10.20;86.90
51559;DHT22;61650;48.882;2.092;2023-05-19T06:43:45;10.20;89.40
51559;DHT22;61650;48.882;2.092;2023-05-19T06:46:11;10.40;89.20
51559;DHT22;61650;48.882;2.092;2023-05-19T06:48:37;10.50;90.40
51559;DHT22;61650;48.882;2.092;2023-05-19T06:51:03;10.50;92.90
51559;DHT22;61650;48.882;2.092;2023-05-19T06:53:29;10.50;90.60
51559;DHT22;61650;48.882;2.092;2023-05-19T06:55:55;10.70;93.90
51559;DHT22;61650;48.882;2.092;2023-05-19T06:58:20;10.80;88.30
51559;DHT22;61650;48.882;2.092;2023-05-19T07:00:46;10.90;84.40
51559;DHT22;61650;48.882;2.092;2023-05-19T07:03:11;11.00;81.20
51559;DHT22;61650;48.882;2.092;2023-05-19T07:05:37;11.00;86.30
51559;DHT22;61650;48.882;2.092;2023-05-19T07:08:03;11.10;84.50
51559;DHT22;61650;48.882;2.092;2023-05-19T07:10:29;11.20;87.80
51559;DHT22;61650;48.882;2.092;2023-05-19T07:12:55;11.20;92.70
51559;DHT22;61650;48.882;2.092;2023-05-19T07:15:20;11.30;84.40
51559;DHT22;61650;48.882;2.092;2023-05-19T07:17:46;11.40;92.30
51559;DHT22;61650;48.882;2.092;2023-05-19T07:20:12;11.40;91.70
51559;DHT22;61650;48.882;2.092;2023-05-19T07:22:37;11.40;83.00
51559;DHT22;61650;48.882;2.092;2023-05-19T07:25:05;11.60;85.80
51559;DHT22;61650;48.882;2.092;2023-05-19T07:27:31;11.80;91.60
51559;DHT22;61650;48.882;2.092;2023-05-19T07:29:57;11.70;82.90
51559;DHT22;61650;48.882;2.092;2023-05-19T07:32:23;11.70;82.00
51559;DHT22;61650;48.882;2.092;2023-05-19T07:34:48;11.70;82.80
51559;DHT22;61650;48.882;2.092;2023-05-19T07:37:14;11.70;82.90
51559;DHT22;61650;48.882;2.092;2023-05-19T07:39:40;11.80;87.30
51559;DHT22;61650;48.882;2.092;2023-05-19T07:42:06;11.80;81.00
51559;DHT22;61650;48.882;2.092;2023-05-19T07:44:32;12.00;83.60
51559;DHT22;61650;48.882;2.092;2023-05-19T07:46:59;12.00;78.10
51559;DHT22;61650;48.882;2.092;2023-05-19T07:49:25;12.00;75.80
51559;DHT22;61650;48.882;2.092;2023-05-19T07:51:50;12.00;77.70
51559;DHT22;61650;48.882;2.092;2023-05-19T07:54:16;12.00;72.90
51559;DHT22;61650;48.882;2.092;2023-05-19T07:56:41;12.00;76.10
51559;DHT22;61650;48.882;2.092;2023-05-19T07:59:07;12.20;89.70
51559;DHT22;61650;48.882;2.092;2023-05-19T08:01:33;12.50;86.60
51559;DHT22;61650;48.882;2.092;2023-05-19T08:03:58;12.70;74.40
51559;DHT22;61650;48.882;2.092;2023-05-19T08:06:24;12.80;73.00
51559;DHT22;61650;48.882;2.092;2023-05-19T08:08:50;12.90;80.60
51559;DHT22;61650;48.882;2.092;2023-05-19T08:11:16;13.20;78.00
51559;DHT22;61650;48.882;2.092;2023-05-19T08:13:42;13.30;71.40
51559;DHT22;61650;48.882;2.092;2023-05-19T08:16:08;13.50;70.80
51559;DHT22;61650;48.882;2.092;2023-05-19T08:18:33;13.60;72.20
51559;DHT22;61650;48.882;2.092;2023-05-19T08:20:59;13.70;88.00
51559;DHT22;61650;48.882;2.092;2023-05-19T08:23:24;13.70;77.40
51559;DHT22;61650;48.882;2.092;2023-05-19T08:25:50;13.70;82.70
51559;DHT22;61650;48.882;2.092;2023-05-19T08:28:15;13.60;69.60
51559;DHT22;61650;48.882;2.092;2023-05-19T08:30:41;13.50;76.90
51559;DHT22;61650;48.882;2.092;2023-05-19T08:33:07;13.70;71.90
51559;DHT22;61650;48.882;2.092;2023-05-19T08:35:33;13.80;82.30
51559;DHT22;61650;48.882;2.092;2023-05-19T08:37:58;13.80;72.40
51559;DHT22;61650;48.882;2.092;2023-05-19T08:40:24;13.90;73.10
51559;DHT22;61650;48.882;2.092;2023-05-19T08:42:52;14.00;69.90
51559;DHT22;61650;48.882;2.092;2023-05-19T08:45:18;14.20;69.80
51559;DHT22;61650;48.882;2.092;2023-05-19T08:47:47;14.40;70.60
51559;DHT22;61650;48.882;2.092;2023-05-19T08:50:22;14.60;80.10
51559;DHT22;61650;48.882;2.092;2023-05-19T08:55:43;15.00;81.60
51559;DHT22;61650;48.882;2.092;2023-05-19T08:58:11;15.00;75.90
51559;DHT22;61650;48.882;2.092;2023-05-19T09:00:37;15.00;66.40
51559;DHT22;61650;48.882;2.092;2023-05-19T09:03:03;15.10;65.80
51559;DHT22;61650;48.882;2.092;2023-05-19T09:05:29;15.20;68.30
51559;DHT22;61650;48.882;2.092;2023-05-19T09:07:56;15.20;70.50
51559;DHT22;61650;48.882;2.092;2023-05-19T09:10:22;15.30;75.70
51559;DHT22;61650;48.882;2.092;2023-05-19T09:12:47;15.30;72.70
51559;DHT22;61650;48.882;2.092;2023-05-19T09:15:17;15.10;66.10
51559;DHT22;61650;48.882;2.092;2023-05-19T09:17:45;14.90;67.50
51559;DHT22;61650;48.882;2.092;2023-05-19T09:20:12;15.10;68.60
51559;DHT22;61650;48.882;2.092;2023-05-19T09:22:45;15.30;79.20
51559;DHT22;61650;48.882;2.092;2023-05-19T09:25:18;15.20;65.30
51559;DHT22;61650;48.882;2.092;2023-05-19T09:27:45;15.10;65.60
51559;DHT22;61650;48.882;2.092;2023-05-19T09:30:13;15.30;69.40
51559;DHT22;61650;48.882;2.092;2023-05-19T09:32:38;15.40;76.70
51559;DHT22;61650;48.882;2.092;2023-05-19T09:35:04;15.40;70.40
51559;DHT22;61650;48.882;2.092;2023-05-19T09:37:30;15.50;75.40
51559;DHT22;61650;48.882;2.092;2023-05-19T09:39:56;15.70;81.10
51559;DHT22;61650;48.882;2.092;2023-05-19T09:42:27;15.70;75.20
51559;DHT22;61650;48.882;2.092;2023-05-19T09:45:04;15.90;66.80
51559;DHT22;61650;48.882;2.092;2023-05-19T09:47:40;15.90;65.80
51559;DHT22;61650;48.882;2.092;2023-05-19T09:50:08;15.90;64.60
51559;DHT22;61650;48.882;2.092;2023-05-19T09:52:37;16.00;70.60
51559;DHT22;61650;48.882;2.092;2023-05-19T09:55:07;16.20;67.40
51559;DHT22;61650;48.882;2.092;2023-05-19T09:57:35;16.30;64.50
51559;DHT22;61650;48.882;2.092;2023-05-19T10:00:09;16.20;62.80
51559;DHT22;61650;48.882;2.092;2023-05-19T10:02:46;16.40;65.40
51559;DHT22;61650;48.882;2.092;2023-05-19T10:05:14;16.60;65.70
51559;DHT22;61650;48.882;2.092;2023-05-19T10:07:52;16.70;62.70
51559;DHT22;61650;48.882;2.092;2023-05-19T10:10:19;16.60;75.70
51559;DHT22;61650;48.882;2.092;2023-05-19T10:12:46;16.60;65.00
51559;DHT22;61650;48.882;2.092;2023-05-19T10:15:37;16.90;63.20
51559;DHT22;61650;48.882;2.092;2023-05-19T10:18:06;17.30;74.40
51559;DHT22;61650;48.882;2.092;2023-05-19T10:20:32;17.50;58.10
51559;DHT22;61650;48.882;2.092;2023-05-19T10:22:59;17.50;64.30
51559;DHT22;61650;48.882;2.092;2023-05-19T10:25:25;17.40;63.70
51559;DHT22;61650;48.882;2.092;2023-05-19T10:28:10;17.40;61.10
51559;DHT22;61650;48.882;2.092;2023-05-19T10:30:43;17.40;58.70
51559;DHT22;61650;48.882;2.092;2023-05-19T10:33:16;17.50;57.10
51559;DHT22;61650;48.882;2.092;2023-05-19T10:38:40;17.70;66.40
51559;DHT22;61650;48.882;2.092;2023-05-19T10:43:46;18.00;59.80
51559;DHT22;61650;48.882;2.092;2023-05-19T10:46:13;18.20;56.90
51559;DHT22;61650;48.882;2.092;2023-05-19T10:48:43;18.20;55.90
51559;DHT22;61650;48.882;2.092;2023-05-19T10:51:10;18.10;59.70
51559;DHT22;61650;48.882;2.092;2023-05-19T10:53:42;17.90;54.70
51559;DHT22;61650;48.882;2.092;2023-05-19T10:56:26;17.70;56.20
51559;DHT22;61650;48.882;2.092;2023-05-19T10:58:53;17.70;69.20
51559;DHT22;61650;48.882;2.092;2023-05-19T11:01:19;17.50;58.70
51559;DHT22;61650;48.882;2.092;2023-05-19T11:03:49;17.40;70.80
51559;DHT22;61650;48.882;2.092;2023-05-19T11:06:33;17.50;71.70
51559;DHT22;61650;48.882;2.092;2023-05-19T11:09:22;17.40;58.70
51559;DHT22;61650;48.882;2.092;2023-05-19T11:11:52;17.30;53.40
51559;DHT22;61650;48.882;2.092;2023-05-19T11:14:20;17.40;58.60
51559;DHT22;61650;48.882;2.092;2023-05-19T11:16:49;17.50;59.30
51559;DHT22;61650;48.882;2.092;2023-05-19T11:19:18;17.50;53.50
51559;DHT22;61650;48.882;2.092;2023-05-19T11:21:48;17.80;59.20
51559;DHT22;61650;48.882;2.092;2023-05-19T11:27:26;18.20;64.10
51559;DHT22;61650;48.882;2.092;2023-05-19T11:29:56;18.20;50.00
51559;DHT22;61650;48.882;2.092;2023-05-19T11:32:26;18.20;64.20
51559;DHT22;61650;48.882;2.092;2023-05-19T11:34:51;18.10;64.70
51559;DHT22;61650;48.882;2.092;2023-05-19T11:37:19;17.90;68.90
51559;DHT22;61650;48.882;2.092;2023-05-19T11:39:45;17.90;65.20
51559;DHT22;61650;48.882;2.092;2023-05-19T11:42:11;18.20;64.80
51559;DHT22;61650;48.882;2.092;2023-05-19T11:44:37;18.10;66.40
51559;DHT22;61650;48.882;2.092;2023-05-19T11:47:05;17.80;53.90
51559;DHT22;61650;48.882;2.092;2023-05-19T11:49:31;17.90;55.50
51559;DHT22;61650;48.882;2.092;2023-05-19T11:51:59;18.20;58.40
51559;DHT22;61650;48.882;2.092;2023-05-19T11:54:32;18.10;61.50
51559;DHT22;61650;48.882;2.092;2023-05-19T11:57:04;17.90;56.70
51559;DHT22;61650;48.882;2.092;2023-05-19T11:59:34;18.50;60.80
51559;DHT22;61650;48.882;2.092;2023-05-19T12:02:01;19.20;47.30
51559;DHT22;61650;48.882;2.092;2023-05-19T12:04:30;19.70;52.90
51559;DHT22;61650;48.882;2.092;2023-05-19T12:06:56;21.10;62.50
51559;DHT22;61650;48.882;2.092;2023-05-19T12:09:22;21.50;43.70
51559;DHT22;61650;48.882;2.092;2023-05-19T12:11:51;21.90;60.10
51559;DHT22;61650;48.882;2.092;2023-05-19T12:14:17;21.70;62.60
51559;DHT22;61650;48.882;2.092;2023-05-19T12:16:43;21.20;43.80
51559;DHT22;61650;48.882;2.092;2023-05-19T12:19:08;20.60;66.20
51559;DHT22;61650;48.882;2.092;2023-05-19T12:21:34;20.40;51.30
51559;DHT22;61650;48.882;2.092;2023-05-19T12:24:00;21.00;63.40
51559;DHT22;61650;48.882;2.092;2023-05-19T12:26:26;21.70;63.20
51559;DHT22;61650;48.882;2.092;2023-05-19T12:28:52;21.90;59.90
51559;DHT22;61650;48.882;2.092;2023-05-19T12:31:18;22.10;52.80
51559;DHT22;61650;48.882;2.092;2023-05-19T12:33:47;21.70;46.40
51559;DHT22;61650;48.882;2.092;2023-05-19T12:36:16;21.10;46.50
51559;DHT22;61650;48.882;2.092;2023-05-19T12:38:42;20.50;46.00
51559;DHT22;61650;48.882;2.092;2023-05-19T12:41:10;21.10;55.90
51559;DHT22;61650;48.882;2.092;2023-05-19T12:43:37;22.50;54.70
51559;DHT22;61650;48.882;2.092;2023-05-19T12:46:10;24.00;39.80
51559;DHT22;61650;48.882;2.092;2023-05-19T12:48:42;23.00;57.10
51559;DHT22;61650;48.882;2.092;2023-05-19T12:51:08;21.40;48.40
51559;DHT22;61650;48.882;2.092;2023-05-19T12:53:35;21.80;47.30
51559;DHT22;61650;48.882;2.092;2023-05-19T12:56:01;23.70;48.40
51559;DHT22;61650;48.882;2.092;2023-05-19T12:58:34;24.80;39.90
51559;DHT22;61650;48.882;2.092;2023-05-19T13:01:01;24.60;59.50
51559;DHT22;61650;48.882;2.092;2023-05-19T13:03:27;23.40;47.30
51559;DHT22;61650;48.882;2.092;2023-05-19T13:05:52;24.00;44.00
51559;DHT22;61650;48.882;2.092;2023-05-19T13:08:20;24.80;58.40
51559;DHT22;61650;48.882;2.092;2023-05-19T13:10:46;24.40;40.70
51559;DHT22;61650;48.882;2.092;2023-05-19T13:13:13;24.50;37.20
51559;DHT22;61650;48.882;2.092;2023-05-19T13:15:43;24.30;36.20
51559;DHT22;61650;48.882;2.092;2023-05-19T13:18:10;24.80;38.70
51559;DHT22;61650;48.882;2.092;2023-05-19T13:20:37;25.00;50.60
51559;DHT22;61650;48.882;2.092;2023-05-19T13:23:03;23.90;41.90
51559;DHT22;61650;48.882;2.092;2023-05-19T13:25:30;23.70;43.70
51559;DHT22;61650;48.882;2.092;2023-05-19T13:27:57;24.50;38.80
51559;DHT22;61650;48.882;2.092;2023-05-19T13:30:26;25.40;46.20
51559;DHT22;61650;48.882;2.092;2023-05-19T13:32:52;25.60;37.70
51559;DHT22;61650;48.882;2.092;2023-05-19T13:35:18;25.50;39.20
51559;DHT22;61650;48.882;2.092;2023-05-19T13:37:43;25.30;45.10
51559;DHT22;61650;48.882;2.092;2023-05-19T13:40:09;24.00;37.60
51559;DHT22;61650;48.882;2.092;2023-05-19T13:42:35;23.90;48.50
51559;DHT22;61650;48.882;2.092;2023-05-19T13:45:01;24.00;41.30
51559;DHT22;61650;48.882;2.092;2023-05-19T13:47:28;24.20;37.60
51559;DHT22;61650;48.882;2.092;2023-05-19T13:49:54;23.30;54.80
51559;DHT22;61650;48.882;2.092;2023-05-19T13:52:22;22.30;40.50
51559;DHT22;61650;48.882;2.092;2023-05-19T13:54:48;22.00;53.60
51559;DHT22;61650;48.882;2.092;2023-05-19T13:57:15;21.60;42.30
51559;DHT22;61650;48.882;2.092;2023-05-19T13:59:40;21.50;50.60
51559;DHT22;61650;48.882;2.092;2023-05-19T14:02:07;21.10;40.50
51559;DHT22;61650;48.882;2.092;2023-05-19T14:04:35;20.90;45.70
51559;DHT22;61650;48.882;2.092;2023-05-19T14:07:01;20.70;48.40
51559;DHT22;61650;48.882;2.092;2023-05-19T14:09:27;20.70;43.50
51559;DHT22;61650;48.882;2.092;2023-05-19T14:11:53;20.40;53.90
51559;DHT22;61650;48.882;2.092;2023-05-19T14:14:18;20.30;44.90
51559;DHT22;61650;48.882;2.092;2023-05-19T14:16:44;20.40;42.90
51559;DHT22;61650;48.882;2.092;2023-05-19T14:19:10;20.60;56.80
51559;DHT22;61650;48.882;2.092;2023-05-19T14:21:36;20.70;64.50
51559;DHT22;61650;48.882;2.092;2023-05-19T14:24:02;20.50;54.30
51559;DHT22;61650;48.882;2.092;2023-05-19T14:26:28;20.10;56.90
51559;DHT22;61650;48.882;2.092;2023-05-19T14:28:53;19.90;49.60
51559;DHT22;61650;48.882;2.092;2023-05-19T14:31:21;19.80;47.30
51559;DHT22;61650;48.882;2.092;2023-05-19T14:33:47;19.90;60.50
51559;DHT22;61650;48.882;2.092;2023-05-19T14:36:12;20.00;49.00
51559;DHT22;61650;48.882;2.092;2023-05-19T14:38:38;19.80;48.00
51559;DHT22;61650;48.882;2.092;2023-05-19T14:41:04;19.80;47.00
51559;DHT22;61650;48.882;2.092;2023-05-19T14:43:30;19.80;44.10
51559;DHT22;61650;48.882;2.092;2023-05-19T14:45:55;19.80;48.00
51559;DHT22;61650;48.882;2.092;2023-05-19T14:48:21;19.70;47.70
51559;DHT22;61650;48.882;2.092;2023-05-19T14:50:47;19.40;44.80
51559;DHT22;61650;48.882;2.092;2023-05-19T14:53:13;19.50;67.60
51559;DHT22;61650;48.882;2.092;2023-05-19T14:55:38;19.50;54.20
51559;DHT22;61650;48.882;2.092;2023-05-19T14:58:04;19.30;49.90
51559;DHT22;61650;48.882;2.092;2023-05-19T15:00:29;19.30;51.20
51559;DHT22;61650;48.882;2.092;2023-05-19T15:02:55;19.20;53.20
51559;DHT22;61650;48.882;2.092;2023-05-19T15:05:21;19.30;46.10
51559;DHT22;61650;48.882;2.092;2023-05-19T15:07:48;19.50;56.60
51559;DHT22;61650;48.882;2.092;2023-05-19T15:10:15;19.40;52.40
51559;DHT22;61650;48.882;2.092;2023-05-19T15:12:41;19.20;51.10
51559;DHT22;61650;48.882;2.092;2023-05-19T15:15:07;19.20;44.10
51559;DHT22;61650;48.882;2.092;2023-05-19T15:17:33;19.30;58.70
51559;DHT22;61650;48.882;2.092;2023-05-19T15:19:58;19.40;48.50
51559;DHT22;61650;48.882;2.092;2023-05-19T15:22:24;19.30;50.70
51559;DHT22;61650;48.882;2.092;2023-05-19T15:24:49;19.30;43.90
51559;DHT22;61650;48.882;2.092;2023-05-19T15:27:15;19.40;53.90
51559;DHT22;61650;48.882;2.092;2023-05-19T15:29:40;19.40;53.20
51559;DHT22;61650;48.882;2.092;2023-05-19T15:32:06;19.40;49.90
51559;DHT22;61650;48.882;2.092;2023-05-19T15:34:32;19.40;55.60
51559;DHT22;61650;48.882;2.092;2023-05-19T15:36:58;19.40;45.70
51559;DHT22;61650;48.882;2.092;2023-05-19T15:39:23;19.40;43.80
51559;DHT22;61650;48.882;2.092;2023-05-19T15:41:50;19.30;59.90
51559;DHT22;61650;48.882;2.092;2023-05-19T15:44:16;19.30;49.90
51559;DHT22;61650;48.882;2.092;2023-05-19T15:46:41;19.20;49.80
51559;DHT22;61650;48.882;2.092;2023-05-19T15:49:07;19.10;47.90
51559;DHT22;61650;48.882;2.092;2023-05-19T15:51:33;19.10;52.90
51559;DHT22;61650;48.882;2.092;2023-05-19T15:53:59;19.10;49.00
51559;DHT22;61650;48.882;2.092;2023-05-19T15:56:24;19.20;60.30
51559;DHT22;61650;48.882;2.092;2023-05-19T15:58:50;19.20;49.20
51559;DHT22;61650;48.882;2.092;2023-05-19T16:01:16;19.10;58.00
51559;DHT22;61650;48.882;2.092;2023-05-19T16:03:43;19.10;60.10
51559;DHT22;61650;48.882;2.092;2023-05-19T16:06:08;19.30;54.00
51559;DHT22;61650;48.882;2.092;2023-05-19T16:08:34;19.40;49.80